Surface/Precipitation History
01/21/2017 03:10  to  1/22/2017 03:10
Change End Date:
Date/Time
(MST)
Sf
Temp Chem Water Layer Surface Precipitation
Sfc Pvt Sub Frz Factor Pct Dpth DpthThk IcePct Cond Salin FI Type Intens Accum Rate
01/22/2017 03:03 Ice Warning 22.3F - - 32F 95 1% - - 98% 1 mhos 287 - None None - -
01/22/2017 02:55 Ice Warning 22.1F - - 32F 95 1% - - 98% 1 mhos 282 - None None - -
01/22/2017 02:53 Ice Warning 22.3F - - 32F 95 1% - - 98% 1 mhos 279 - Yes - - -
01/22/2017 02:43 Ice Warning 22.3F - - 32F 85 1% - - 98% 1 mhos 269 - None None - -
01/22/2017 02:40 Ice Warning 22.3F - - 32F 85 1% - - 98% 1 mhos 265 - None None - -
01/22/2017 02:33 Ice Warning 22.3F - - 32F 80 1% - - 98% 1 mhos 262 - None None - -
01/22/2017 02:25 Ice Warning 22.1F - - 32F 75 1% - - 98% 1 mhos 264 - None None - -
01/22/2017 02:23 Ice Warning 22.1F - - 32F 75 1% - - 98% 1 mhos 264 - None None - -
01/22/2017 02:13 Ice Warning 21.9F - - 32F 70 1% - - 98% 1 mhos 267 - None None - -
01/22/2017 02:10 Ice Warning 21.9F - - 32F 70 1% - - 98% 1 mhos 269 - None None - -
01/22/2017 02:03 Ice Warning 21.9F - - 32F 70 1% - - 98% 1 mhos 269 - None None - -
01/22/2017 01:55 Ice Warning 22.1F - - 32F 65 1% - - 98% 1 mhos 264 - None None - -
01/22/2017 01:53 Ice Warning 21.7F - - 32F 65 1% - - 98% 1 mhos 270 - None None - -
01/22/2017 01:43 Ice Warning 21.9F - - 32F 65 1% - - 98% 1 mhos 268 - None None - -
01/22/2017 01:40 Ice Warning 21.9F - - 32F 65 1% - - 98% 1 mhos 267 - None None - -
Date/Time
(MST)
Sf
Temp Chem Water Layer Surface Precipitation
Sfc Pvt Sub Frz Factor Pct Dpth DpthThk IcePct Cond Salin FI Type Intens Accum Rate
01/22/2017 01:33 Ice Warning 22.1F - - 32F 65 1% - - 98% 1 mhos 266 - None None - -
01/22/2017 01:25 Ice Warning 22.3F - - 32F 65 1% - - 98% 1 mhos 262 - None None - -
01/22/2017 01:23 Ice Warning 22.1F - - 32F 65 1% - - 98% 1 mhos 266 - None None - -
01/22/2017 01:13 Ice Warning 22.1F - - 32F 60 1% - - 98% 1 mhos 266 - None None - -
01/22/2017 01:10 Ice Warning 22.1F - - 32F 65 1% - - 98% 1 mhos 264 - None None - -
01/22/2017 01:03 Ice Warning 21.7F - - 32F 60 1% - - 98% 1 mhos 272 - None None - -
01/22/2017 00:55 Ice Warning 21.9F - - 32F 65 1% - - 98% 1 mhos 269 - None None - -
01/22/2017 00:53 Ice Warning 21.9F - - 32F 60 1% - - 98% 1 mhos 269 - None None - -
01/22/2017 00:43 Ice Warning 21.6F - - 32F 60 1% - - 98% 1 mhos 275 - None None - -
01/22/2017 00:40 Ice Warning 21.6F - - 32F 60 1% - - 98% 1 mhos 279 - None None - -
01/22/2017 00:32 Ice Warning 21.6F - - 32F 60 1% - - 98% 1 mhos 275 - None None - -
01/22/2017 00:25 Ice Warning 21.4F - - 32F 55 1% - - 98% 1 mhos 282 - None None - -
01/22/2017 00:22 Ice Warning 21.6F - - 32F 60 1% - - 98% 1 mhos 278 - None None - -
01/22/2017 00:12 Ice Warning 21.0F - - 32F 60 1% - - 98% 1 mhos 290 - None None - -
01/22/2017 00:10 Ice Warning 21.2F - - 32F 60 1% - - 98% 1 mhos 287 - None None - -
Date/Time
(MST)
Sf
Temp Chem Water Layer Surface Precipitation
Sfc Pvt Sub Frz Factor Pct Dpth DpthThk IcePct Cond Salin FI Type Intens Accum Rate
01/22/2017 00:02 Ice Warning 21.0F - - 32F 60 1% - - 98% 1 mhos 291 - None None - -
01/21/2017 23:55 Ice Warning 21.4F - - 32F 60 1% - - 98% 1 mhos 282 - None None - -
01/21/2017 23:52 Ice Warning 21.6F - - 32F 60 1% - - 98% 1 mhos 280 - None None - -
01/21/2017 23:42 Ice Warning 21.9F - - 32F 60 1% - - 98% 1 mhos 271 - None None - -
01/21/2017 23:40 Ice Warning 21.9F - - 32F 60 1% - - 98% 1 mhos 270 - None None - -
01/21/2017 23:32 Ice Warning 22.6F - - 32F 65 1% - - 98% 1 mhos 257 - None None - -
01/21/2017 23:25 Ice Warning 23.2F - - 32F 65 1% - - 98% 1 mhos 248 - None None - -
01/21/2017 23:22 Ice Warning 23.4F - - 32F 60 1% - - 98% 1 mhos 246 - None None - -
01/21/2017 23:12 Ice Warning 23.9F - - 32F 65 1% - - 98% 1 mhos 237 - None None - -
01/21/2017 23:10 Ice Warning 23.9F - - 32F 65 1% - - 98% 1 mhos 235 - None None - -
01/21/2017 23:02 Ice Warning 24.1F - - 32F 65 1% - - 98% 1 mhos 234 - None None - -
01/21/2017 22:55 Ice Warning 23.9F - - 32F 60 1% - - 98% 1 mhos 234 - None None - -
01/21/2017 22:52 Ice Warning 24.1F - - 32F 60 1% - - 98% 1 mhos 234 - None None - -
01/21/2017 22:42 Ice Warning 24.1F - - 32F 65 1% - - 98% 1 mhos 234 - None None - -
01/21/2017 22:40 Ice Warning 24.3F - - 32F 65 1% - - 98% 1 mhos 231 - Yes - - -
Date/Time
(MST)
Sf
Temp Chem Water Layer Surface Precipitation
Sfc Pvt Sub Frz Factor Pct Dpth DpthThk IcePct Cond Salin FI Type Intens Accum Rate
01/21/2017 22:32 Ice Warning 24.4F - - 32F 65 1% - - 98% 1 mhos 229 - None None - -
01/21/2017 22:25 Ice Warning 24.4F - - 32F 65 1% - - 98% 1 mhos 228 - None None - -
01/21/2017 22:22 Ice Warning 24.4F - - 32F 65 1% - - 98% 1 mhos 228 - None None - -
01/21/2017 22:12 Ice Warning 24.4F - - 32F 65 1% - - 98% 1 mhos 228 - None None - -
01/21/2017 22:10 Ice Warning 24.3F - - 32F 65 1% - - 98% 1 mhos 230 - None None - -
01/21/2017 22:02 Ice Warning 24.4F - - 32F 65 1% - - 98% 1 mhos 229 - None None - -
01/21/2017 21:55 Ice Warning 24.6F - - 32F 55 1% - - 98% 1 mhos 224 - None None - -
01/21/2017 21:52 Ice Warning 24.4F - - 32F 55 1% - - 98% 1 mhos 229 - None None - -
01/21/2017 21:42 Ice Warning 24.6F - - 32F 55 1% - - 98% 1 mhos 225 - None None - -
01/21/2017 21:40 Ice Warning 24.4F - - 32F 55 1% - - 98% 1 mhos 228 - None None - -
01/21/2017 21:32 Ice Warning 24.6F - - 32F 60 1% - - 98% 1 mhos 226 - None None - -
01/21/2017 21:25 Ice Warning 24.6F - - 32F 60 1% - - 98% 1 mhos 227 - None None - -
01/21/2017 21:22 Ice Warning 24.6F - - 32F 60 1% - - 98% 1 mhos 225 - None None - -
01/21/2017 21:11 Ice Warning 24.6F - - 32F 60 1% - - 98% 1 mhos 225 - None None - -
01/21/2017 21:10 Ice Warning 24.8F - - 32F 60 1% - - 98% 1 mhos 222 - None None - -
Date/Time
(MST)
Sf
Temp Chem Water Layer Surface Precipitation
Sfc Pvt Sub Frz Factor Pct Dpth DpthThk IcePct Cond Salin FI Type Intens Accum Rate
01/21/2017 21:01 Ice Warning 24.8F - - 32F 60 1% - - 98% 1 mhos 224 - None None - -
01/21/2017 20:55 Ice Warning 25.0F - - 32F 55 1% - - 98% 1 mhos 219 - None None - -
01/21/2017 20:51 Ice Warning 25.0F - - 32F 60 1% - - 98% 1 mhos 219 - None None - -
01/21/2017 20:41 Ice Warning 25.0F - - 32F 65 1% - - 98% 1 mhos 220 - None None - -
01/21/2017 20:40 Ice Warning 25.0F - - 32F 65 1% - - 98% 1 mhos 220 - None None - -
01/21/2017 20:31 Ice Warning 25.2F - - 32F 75 1% - - 98% 1 mhos 217 - None None - -
01/21/2017 20:25 Ice Warning 25.2F - - 32F 75 1% - - 98% 1 mhos 218 - None None - -
01/21/2017 20:21 Ice Warning 25.2F - - 32F 75 1% - - 98% 1 mhos 220 - None None - -
01/21/2017 20:11 Ice Warning 25.3F - - 32F 75 1% - - 98% 1 mhos 212 - None None - -
01/21/2017 20:10 Ice Warning 25.2F - - 32F 75 1% - - 98% 1 mhos 212 - None None - -
01/21/2017 20:01 Ice Warning 25.5F - - 32F 75 1% - - 98% 1 mhos 193 - None None - -
01/21/2017 19:55 Ice Warning 25.3F - - 32F 75 1% - - 98% 1 mhos 187 - None None - -
01/21/2017 19:51 Ice Warning 25.5F - - 32F 75 1% - - 98% 1 mhos 180 - None None - -
01/21/2017 19:41 Ice Warning 25.5F - - 32F 75 1% - - 98% 1 mhos 175 - None None - -
01/21/2017 19:40 Ice Warning 25.3F - - 32F 75 1% - - 98% 1 mhos 175 - None None - -
Date/Time
(MST)
Sf
Temp Chem Water Layer Surface Precipitation
Sfc Pvt Sub Frz Factor Pct Dpth DpthThk IcePct Cond Salin FI Type Intens Accum Rate
01/21/2017 19:31 Ice Warning 25.7F - - 32F 80 1% - - 98% 1 mhos 167 - None None - -
01/21/2017 19:25 Ice Warning 25.9F - - 32F 75 1% - - 98% 1 mhos 163 - None None - -
01/21/2017 19:21 Ice Warning 25.9F - - 32F 80 1% - - 98% 1 mhos 162 - None None - -
01/21/2017 19:11 Ice Warning 26.1F - - 32F 90 1% - - 99% 1 mhos 154 - None None - -
01/21/2017 19:10 Ice Warning 26.1F - - 32F 90 1% - - 99% 1 mhos 152 - None None - -
01/21/2017 19:01 Ice Warning 26.2F - - 32F 90 0% - - 99% 1 mhos 144 - None None - -
01/21/2017 18:55 Ice Warning 26.2F - - 32F 85 0% - - 99% 1 mhos 139 - None None - -
01/21/2017 18:51 Ice Warning 26.8F - - 32F 85 0% - - 99% 1 mhos 131 - None None - -
01/21/2017 18:41 Ice Warning 27.0F - - 32F 95 0% - - 99% 1 mhos 117 - None None - -
01/21/2017 18:40 Ice Warning 26.8F - - 32F 95 0% - - 99% 1 mhos 118 - None None - -
01/21/2017 18:31 Ice Warning 27.0F - - 32F 95 0% - - 99% 1 mhos 105 - None None - -
01/21/2017 18:25 Ice Warning 27.0F - - 32F 85 0% - - 99% 1 mhos 99 - None None - -
01/21/2017 18:21 Ice Warning 27.1F - - 32F 90 0% - - 99% 1 mhos 93 - None None - -
01/21/2017 18:11 Ice Warning 27.3F - - 32F 85 0% - - 99% 1 mhos 83 - None None - -
01/21/2017 18:10 Ice Warning 27.3F - - 32F 80 0% - - 99% 1 mhos 82 - None None - -
Date/Time
(MST)
Sf
Temp Chem Water Layer Surface Precipitation
Sfc Pvt Sub Frz Factor Pct Dpth DpthThk IcePct Cond Salin FI Type Intens Accum Rate
01/21/2017 18:01 Ice Warning 27.5F - - 32F 70 0% - - 99% 1 mhos 74 - None None - -
01/21/2017 17:55 Ice Warning 27.7F - - 32F 55 0% - - 99% 0 mhos 67 - None None - -
01/21/2017 17:50 Ice Warning 27.9F - - 32F 50 0% - - 99% 0 mhos 61 - None None - -
01/21/2017 17:40 Ice Warning 28.0F - - 32F 50 0% - - 100% 0 mhos 36 - Yes - - -
01/21/2017 17:40 Ice Warning 28.0F - - 32F 45 0% - - 100% 0 mhos 33 - Yes - - -
01/21/2017 17:30 Ice Warning 28.4F - - 32F 35 0% - - 100% 0 mhos 13 - Yes - - -
01/21/2017 17:25 Ice Warning 28.8F - - 32F 35 0% - - 100% 0 mhos 7 - None None - -
01/21/2017 17:20 Ice Warning 28.8F - - 32F 25 0% - - 100% 0 mhos 5 - None None - -
01/21/2017 17:10 Ice Warning 29.5F - - 32F 5 0% - - 100% 0 mhos 1 - None None - -
01/21/2017 17:10 Ice Warning 29.7F - - 32F 5 0% - - 100% 0 mhos 1 - Yes - - -
01/21/2017 17:00 Ice Watch 30.0F - - - 5 - - - - 0 mhos 1 - Yes - - -
01/21/2017 16:55 Ice Watch 30.4F - - - 5 - - - - 0 mhos 1 - None None - -
01/21/2017 16:50 Ice Watch 30.4F - - - 5 - - - - 0 mhos 1 - None None - -
01/21/2017 16:40 Ice Watch 30.6F - - - 5 - - - - 0 mhos 1 - None None - -
01/21/2017 16:40 Ice Watch 30.6F - - - 5 - - - - 0 mhos 1 - None None - -
Date/Time
(MST)
Sf
Temp Chem Water Layer Surface Precipitation
Sfc Pvt Sub Frz Factor Pct Dpth DpthThk IcePct Cond Salin FI Type Intens Accum Rate
01/21/2017 16:30 Ice Watch 30.9F - - - 5 - - - - 0 mhos 0 - None None - -
01/21/2017 16:25 Ice Watch 31.3F - - - 5 - - - - 0 mhos 0 - None None - -
01/21/2017 16:20 Ice Watch 31.6F - - - 5 - - - - 0 mhos 0 - None None - -
01/21/2017 16:10 Trace Moisture 33.1F - - - 5 - - - - 0 mhos 0 - None None - -
01/21/2017 16:10 Trace Moisture 33.1F - - - 5 - - - - 0 mhos 0 - None None - -
01/21/2017 16:00 Trace Moisture 34.5F - - - 5 - - - - 0 mhos 0 - None None - -
01/21/2017 15:55 Wet 34.5F - - 32F 5 0% 0.00 in - 0% 0 mhos 0 - None None - -
01/21/2017 15:50 Wet 34.9F - - 32F 5 0% 0.00 in - 0% 0 mhos 0 - None None - -
01/21/2017 15:40 Wet 34.7F - - 32F 5 0% 0.00 in - 0% 0 mhos 0 - None None - -
01/21/2017 15:40 Wet 34.7F - - 32F 5 0% 0.00 in - 0% 0 mhos 0 - None None - -
01/21/2017 15:30 Wet 35.8F - - 32F 5 0% 0.00 in - 0% 0 mhos 0 - None None - -
01/21/2017 15:25 Wet 36.3F - - 32F 5 0% 0.00 in - 0% 0 mhos 0 - None None - -
01/21/2017 15:20 Dry 36.5F - - - - - - - - 0 mhos 0 - None None - -
01/21/2017 15:10 Dry 37.2F - - - - - - - - 0 mhos 1 - None None - -
01/21/2017 15:10 Dry 37.2F - - - - - - - - 0 mhos 1 - None None - -
Date/Time
(MST)
Sf
Temp Chem Water Layer Surface Precipitation
Sfc Pvt Sub Frz Factor Pct Dpth DpthThk IcePct Cond Salin FI Type Intens Accum Rate
01/21/2017 15:00 Dry 37.6F - - - - - - - - 0 mhos 2 - None None - -
01/21/2017 14:55 Dry 37.6F - - - - - - - - 0 mhos 4 - None None - -
01/21/2017 14:50 Dry 37.8F - - - - - - - - 0 mhos 7 - None None - -
01/21/2017 14:40 Dry 38.3F - - - - - - - - 0 mhos 15 - None None - -
01/21/2017 14:40 Dry 38.3F - - - - - - - - 0 mhos 15 - None None - -
01/21/2017 14:29 Trace Moisture 38.8F - - - 5 - - - - 0 mhos 24 - None None - -
01/21/2017 14:25 Wet 39.0F - - 32F 5 0% 0.00 in - 0% 0 mhos 29 - None None - -
01/21/2017 14:19 Wet 39.2F - - 32F 5 0% 0.00 in - 0% 0 mhos 37 - None None - -
01/21/2017 14:10 Wet 39.0F - - 32F 5 0% 0.00 in - 0% 1 mhos 54 - None None - -
01/21/2017 14:09 Wet 39.0F - - 32F 5 0% 0.00 in - 0% 1 mhos 55 - None None - -
01/21/2017 13:59 Wet 38.8F - - 32F 20 0% 0.00 in - 0% 1 mhos 77 - None None - -
01/21/2017 13:55 Wet 38.8F - - 32F 70 0% 0.00 in - 0% 1 mhos 87 - None None - -
01/21/2017 13:49 Wet 38.8F - - 32F 95 0% 0.00 in - 0% 1 mhos 100 - None None - -
01/21/2017 13:40 Wet 39.4F - - 32F 95 0% 0.00 in - 0% 1 mhos 124 - None None - -
01/21/2017 13:39 Wet 39.2F - - 32F 95 0% 0.00 in - 0% 1 mhos 127 - None None - -
Date/Time
(MST)
Sf
Temp Chem Water Layer Surface Precipitation
Sfc Pvt Sub Frz Factor Pct Dpth DpthThk IcePct Cond Salin FI Type Intens Accum Rate
01/21/2017 13:29 Wet 39.0F - - 32F 95 0% 0.00 in - 0% 2 mhos 146 - None None - -
01/21/2017 13:25 Wet 38.8F - - 32F 95 1% 0.00 in - 0% 2 mhos 155 - None None - -
01/21/2017 13:19 Wet 38.8F - - 32F 95 1% 0.00 in - 0% 2 mhos 170 - None None - -
01/21/2017 13:10 Wet 38.5F - - 32F 95 1% 0.00 in - 0% 2 mhos 230 - None None - -
01/21/2017 13:09 Wet 38.3F - - 32F 95 1% 0.00 in - 0% 3 mhos 238 - None None - -
01/21/2017 12:59 Wet 38.1F - - 32F 95 1% 0.00 in - 0% 4 mhos 379 - None None - -
01/21/2017 12:55 Wet 38.7F - - 32F 95 1% 0.00 in - 0% 5 mhos 431 - None None - -
01/21/2017 12:49 Wet 38.1F - - 32F 95 2% 0.00 in - 0% 5 mhos 514 - None None - -
01/21/2017 12:40 Wet 37.9F - - 31F 95 2% 0.00 in - 0% 6 mhos 596 - None None - -
01/21/2017 12:39 Wet 37.9F - - 31F 95 2% 0.00 in - 0% 6 mhos 608 - None None - -
01/21/2017 12:29 Wet 37.6F - - 31F 95 2% 0.00 in - 0% 6 mhos 600 - None None - -
01/21/2017 12:25 Wet 37.4F - - 31F 95 2% 0.00 in - 0% 8 mhos 736 - None None - -
01/21/2017 12:19 Wet 36.5F - - 31F 95 3% 0.00 in - 0% 8 mhos 806 - None None - -
01/21/2017 12:10 Wet 36.1F - - 31F 95 3% 0.00 in - 0% 8 mhos 818 - None None - -
01/21/2017 12:09 Wet 36.0F - - 31F 95 3% 0.00 in - 0% 8 mhos 806 - None None - -
Date/Time
(MST)
Sf
Temp Chem Water Layer Surface Precipitation
Sfc Pvt Sub Frz Factor Pct Dpth DpthThk IcePct Cond Salin FI Type Intens Accum Rate
01/21/2017 11:59 Wet 35.2F - - 31F 95 4% 0.00 in - 0% 11 mhos 1078 - None None - -
01/21/2017 11:55 Wet 35.4F - - 31F 95 4% 0.00 in - 0% 11 mhos 1058 - None None - -
01/21/2017 11:49 Wet 34.7F - - 31F 95 4% 0.00 in - 0% 12 mhos 1190 - None None - -
01/21/2017 11:40 Wet 34.0F - - 31F 95 6% 0.00 in - 0% 16 mhos 1689 - None None - -
01/21/2017 11:39 Wet 34.0F - - 31F 95 6% 0.00 in - 0% 17 mhos 1702 - None None - -
01/21/2017 11:29 Wet 33.3F - - 31F 95 5% 0.00 in - 0% 14 mhos 1488 - None None - -
01/21/2017 11:25 Wet 32.9F - - 31F 95 5% 0.00 in - 0% 13 mhos 1376 - None None - -
01/21/2017 11:18 Wet 32.7F - - 31F 95 4% 0.00 in - 0% 12 mhos 1226 - None None - -
01/21/2017 11:10 Wet 32.0F - - 31F 95 4% 0.00 in - 0% 11 mhos 1181 - None None - -
01/21/2017 11:08 Chemically Wet 31.6F - - 31F 95 4% 0.00 in - 0% 11 mhos 1148 - None None - -
01/21/2017 10:58 Chemically Wet 31.1F - - 31F 95 4% 0.00 in - 0% 12 mhos 1290 - None None - -
01/21/2017 10:55 Chemically Wet 30.6F - - 31F 95 5% - - 54% 13 mhos 1436 - None None - -
01/21/2017 10:48 Chemically Wet 30.4F - - 31F 95 5% - - 57% 15 mhos 1601 - None None - -
01/21/2017 10:40 Chemically Wet 29.7F - - 31F 95 5% - - 70% 12 mhos 1459 - None None - -
01/21/2017 10:38 Chemically Wet 29.7F - - 30F 95 6% - - 65% 15 mhos 1714 - None None - -
Date/Time
(MST)
Sf
Temp Chem Water Layer Surface Precipitation
Sfc Pvt Sub Frz Factor Pct Dpth DpthThk IcePct Cond Salin FI Type Intens Accum Rate
01/21/2017 10:28 Chemically Wet 28.6F - - 28F 95 14% 0.00 in - 0% 34 mhos 4085 - None None - -
01/21/2017 10:25 Chemically Wet 28.4F - - 29F 95 11% - - 53% 27 mhos 3266 - None None - -
01/21/2017 10:18 Chemically Wet 27.5F - - 30F 95 7% - - 75% 15 mhos 2046 - Yes - - -
01/21/2017 10:10 Chemically Wet 27.0F - - 28F 95 11% - - 62% 26 mhos 3425 - Yes - - -
01/21/2017 10:08 Chemically Wet 27.0F - - 29F 95 10% - - 66% 22 mhos 3053 - Yes - - -
01/21/2017 09:58 Chemically Wet 26.2F - - 30F 95 7% - - 79% 14 mhos 2054 - Yes - - -
01/21/2017 09:55 Chemically Wet 25.9F - - 30F 95 6% - - 82% 12 mhos 1880 - Yes - - -
01/21/2017 09:48 Chemically Wet 25.3F - - 30F 95 8% - - 78% 15 mhos 2474 - None None - -
01/21/2017 09:40 Chemically Wet 24.6F - - 30F 95 7% - - 82% 13 mhos 2186 - Yes - - -
01/21/2017 09:38 Chemically Wet 24.8F - - 30F 95 7% - - 82% 12 mhos 2109 - Yes - - -
01/21/2017 09:28 Ice Warning 24.1F - - 31F 95 4% - - 90% 7 mhos 1265 - Yes - - -
01/21/2017 09:25 Ice Warning 23.7F - - 31F 95 4% - - 91% 6 mhos 1161 - Yes - - -
01/21/2017 09:18 Ice Warning 23.5F - - 31F 95 3% - - 92% 5 mhos 1019 - Yes - - -
01/21/2017 09:10 Ice Warning 23.2F - - 31F 95 3% - - 93% 5 mhos 974 - Yes - - -
01/21/2017 09:08 Ice Warning 23.2F - - 31F 95 3% - - 93% 5 mhos 966 - Yes - - -
Date/Time
(MST)
Sf
Temp Chem Water Layer Surface Precipitation
Sfc Pvt Sub Frz Factor Pct Dpth DpthThk IcePct Cond Salin FI Type Intens Accum Rate
01/21/2017 08:58 Ice Warning 22.5F - - 31F 95 2% - - 96% 3 mhos 627 - Yes - - -
01/21/2017 08:55 Ice Warning 23.0F - - 32F 95 1% - - 97% 2 mhos 405 - Yes - - -
01/21/2017 08:48 Ice Warning 22.6F - - 32F 95 1% - - 97% 2 mhos 380 - Yes - - -
01/21/2017 08:40 Ice Warning 22.3F - - 32F 95 1% - - 98% 2 mhos 355 - Yes - - -
01/21/2017 08:38 Ice Warning 22.1F - - 32F 95 1% - - 98% 2 mhos 352 - Yes - - -
01/21/2017 08:28 Ice Warning 21.7F - - 32F 95 1% - - 98% 1 mhos 323 - Yes - - -
01/21/2017 08:25 Ice Warning 21.7F - - 32F 95 1% - - 98% 1 mhos 317 - Yes - - -
01/21/2017 08:18 Ice Warning 21.6F - - 32F 95 1% - - 98% 1 mhos 307 - None None - -
01/21/2017 08:10 Ice Warning 21.6F - - 32F 95 1% - - 98% 1 mhos 300 - Yes - - -
01/21/2017 08:08 Ice Warning 21.4F - - 32F 95 1% - - 98% 1 mhos 304 - None None - -
01/21/2017 07:57 Ice Warning 21.4F - - 32F 95 1% - - 98% 1 mhos 309 - None None - -
01/21/2017 07:55 Ice Warning 21.4F - - 32F 95 1% - - 98% 1 mhos 310 - Yes - - -
01/21/2017 07:47 Ice Warning 21.4F - - 32F 95 1% - - 98% 1 mhos 310 - None None - -
01/21/2017 07:40 Ice Warning 21.4F - - 32F 95 1% - - 98% 1 mhos 310 - None None - -
01/21/2017 07:37 Ice Warning 21.6F - - 32F 95 1% - - 98% 1 mhos 308 - None None - -
Date/Time
(MST)
Sf
Temp Chem Water Layer Surface Precipitation
Sfc Pvt Sub Frz Factor Pct Dpth DpthThk IcePct Cond Salin FI Type Intens Accum Rate
01/21/2017 07:27 Ice Warning 21.6F - - 32F 95 1% - - 98% 1 mhos 311 - None None - -
01/21/2017 07:25 Ice Warning 21.4F - - 32F 95 1% - - 98% 1 mhos 316 - None None - -
01/21/2017 07:17 Ice Warning 21.6F - - 32F 95 1% - - 98% 1 mhos 311 - Yes - - -
01/21/2017 07:10 Ice Warning 21.6F - - 32F 95 1% - - 98% 1 mhos 315 - None None - -
01/21/2017 07:07 Ice Warning 21.6F - - 32F 95 1% - - 98% 1 mhos 319 - None None - -
01/21/2017 06:57 Ice Warning 21.6F - - 32F 95 1% - - 98% 1 mhos 333 - None None - -
01/21/2017 06:55 Ice Warning 21.6F - - 32F 95 1% - - 98% 1 mhos 337 - Yes - - -
01/21/2017 06:47 Ice Warning 21.6F - - 32F 95 1% - - 98% 2 mhos 380 - Yes - - -
01/21/2017 06:40 Ice Warning 21.6F - - 32F 95 1% - - 98% 2 mhos 377 - None None - -
01/21/2017 06:37 Ice Warning 21.4F - - 32F 95 1% - - 98% 2 mhos 382 - Yes - - -
01/21/2017 06:27 Ice Warning 21.4F - - 32F 95 1% - - 98% 2 mhos 382 - None None - -
01/21/2017 06:25 Ice Warning 21.4F - - 32F 95 1% - - 98% 2 mhos 382 - None None - -
01/21/2017 06:17 Ice Warning 21.0F - - 32F 95 1% - - 98% 2 mhos 393 - None None - -
01/21/2017 06:10 Ice Warning 21.0F - - 32F 95 1% - - 98% 2 mhos 399 - None None - -
01/21/2017 06:07 Ice Warning 21.4F - - 32F 95 1% - - 97% 2 mhos 399 - Yes - - -
Date/Time
(MST)
Sf
Temp Chem Water Layer Surface Precipitation
Sfc Pvt Sub Frz Factor Pct Dpth DpthThk IcePct Cond Salin FI Type Intens Accum Rate
01/21/2017 05:57 Ice Warning 21.7F - - 32F 95 1% - - 97% 2 mhos 405 - Yes - - -
01/21/2017 05:55 Ice Warning 21.7F - - 32F 95 1% - - 97% 2 mhos 412 - Yes - - -
01/21/2017 05:47 Ice Warning 21.7F - - 32F 95 1% - - 97% 2 mhos 443 - Yes - - -
01/21/2017 05:40 Ice Warning 21.7F - - 32F 95 1% - - 97% 2 mhos 443 - Yes - - -
01/21/2017 05:37 Ice Warning 21.7F - - 32F 95 1% - - 97% 2 mhos 447 - None None - -
01/21/2017 05:27 Ice Warning 21.7F - - 32F 95 1% - - 97% 2 mhos 447 - Yes - - -
01/21/2017 05:25 Ice Warning 21.7F - - 32F 95 2% - - 97% 2 mhos 451 - Yes - - -
01/21/2017 05:17 Ice Warning 21.6F - - 32F 95 2% - - 97% 2 mhos 465 - Yes - - -
01/21/2017 05:10 Ice Warning 21.7F - - 32F 95 2% - - 97% 2 mhos 463 - None None - -
01/21/2017 05:07 Ice Warning 21.6F - - 32F 95 2% - - 97% 2 mhos 469 - Yes - - -
01/21/2017 04:57 Ice Warning 21.6F - - 32F 95 2% - - 97% 2 mhos 464 - Yes - - -
01/21/2017 04:55 Ice Warning 21.6F - - 32F 95 2% - - 97% 2 mhos 464 - None None - -
01/21/2017 04:47 Ice Warning 21.7F - - 32F 95 2% - - 97% 2 mhos 458 - Yes - - -
01/21/2017 04:40 Ice Warning 21.7F - - 32F 95 2% - - 97% 2 mhos 450 - Yes - - -
01/21/2017 04:36 Ice Warning 21.7F - - 32F 95 2% - - 97% 2 mhos 451 - Yes - - -
Date/Time
(MST)
Sf
Temp Chem Water Layer Surface Precipitation
Sfc Pvt Sub Frz Factor Pct Dpth DpthThk IcePct Cond Salin FI Type Intens Accum Rate
01/21/2017 04:26 Ice Warning 21.7F - - 32F 95 2% - - 97% 2 mhos 451 - None None - -
01/21/2017 04:25 Ice Warning 21.6F - - 32F 95 2% - - 97% 2 mhos 457 - None None - -
01/21/2017 04:16 Ice Warning 21.6F - - 32F 95 2% - - 97% 2 mhos 456 - Yes - - -
01/21/2017 04:10 Ice Warning 21.6F - - 32F 95 1% - - 97% 2 mhos 449 - Yes - - -
01/21/2017 04:06 Ice Warning 21.6F - - 32F 95 2% - - 97% 2 mhos 455 - Yes - - -
01/21/2017 03:56 Ice Warning 21.4F - - 32F 95 2% - - 97% 2 mhos 456 - Yes - - -
01/21/2017 03:55 Ice Warning 21.4F - - 32F 95 2% - - 97% 2 mhos 452 - Yes - - -
01/21/2017 03:46 Ice Warning 21.4F - - 32F 95 1% - - 97% 2 mhos 445 - Yes - - -
01/21/2017 03:40 Ice Warning 21.2F - - 32F 95 2% - - 97% 2 mhos 451 - Yes - - -
01/21/2017 03:36 Ice Warning 21.2F - - 32F 95 2% - - 97% 2 mhos 454 - Yes - - -
01/21/2017 03:26 Ice Warning 21.2F - - 32F 95 2% - - 97% 2 mhos 451 - Yes - - -
01/21/2017 03:25 Ice Warning 21.4F - - 32F 95 1% - - 97% 2 mhos 445 - Yes - - -
01/21/2017 03:16 Ice Warning 21.6F - - 32F 95 1% - - 97% 2 mhos 443 - Yes - - -
01/21/2017 03:10 Ice Warning 21.6F - - 32F 95 1% - - 97% 2 mhos 441 - Yes - - -
Change End Date:

Copyright © 1998-2015 Vaisala, Inc.
All Rights Reserved
Send comments about the data to:
SCAN Web ® is a registered trademark of Vaisala, Inc.
SCAN Web Version 6.0